Terminal Aerodrome Forecast
Issued by NWS Blacksburg, VA

Home | Current Version | Previous Version | Text Only | Print | Product List | Glossary On
Versions: 1 2 3 4 5 6 7 8 9 10 11 12 13 14 15 16 17 18
000
FTUS41 KRNK 231731
TAFROA
TAF
KROA 231731Z 2318/2418 13008KT 6SM -RA SCT008 OVC035
      TEMPO 2320/2324 3SM RA BR OVC008
     FM240000 08007KT 4SM RA OVC010
     FM240600 07006KT 3SM RA BR OVC008
     FM241300 05008KT 1SM RA BR OVC003
     FM241600 05009G19KT 3SM SHRA OVC010=

USA.gov is the U.S. government's official web portal to all federal, state and local government web resources and services.